sensor_id;sensor_type;location;lat;lon;timestamp;pressure;altitude;pressure_sealevel;temperature;humidity
58072;BME280;60383;46.626;18.866;2024-03-17T00:01:20;100753.22;;;9.21;100.00
58072;BME280;60383;46.626;18.866;2024-03-17T00:03:45;100755.63;;;9.15;100.00
58072;BME280;60383;46.626;18.866;2024-03-17T00:06:11;100754.88;;;9.03;100.00
58072;BME280;60383;46.626;18.866;2024-03-17T00:08:37;100758.91;;;8.99;100.00
58072;BME280;60383;46.626;18.866;2024-03-17T00:11:03;100756.50;;;9.15;100.00
58072;BME280;60383;46.626;18.866;2024-03-17T00:13:28;100761.84;;;9.26;100.00
58072;BME280;60383;46.626;18.866;2024-03-17T00:15:54;100757.53;;;9.34;100.00
58072;BME280;60383;46.626;18.866;2024-03-17T00:18:19;100758.41;;;9.44;100.00
58072;BME280;60383;46.626;18.866;2024-03-17T00:20:45;100754.66;;;9.45;100.00
58072;BME280;60383;46.626;18.866;2024-03-17T00:23:11;100757.97;;;9.39;100.00
58072;BME280;60383;46.626;18.866;2024-03-17T00:25:37;100755.97;;;9.31;100.00
58072;BME280;60383;46.626;18.866;2024-03-17T00:28:03;100758.84;;;9.30;100.00
58072;BME280;60383;46.626;18.866;2024-03-17T00:30:28;100764.56;;;9.26;100.00
58072;BME280;60383;46.626;18.866;2024-03-17T00:32:54;100753.47;;;9.18;100.00
58072;BME280;60383;46.626;18.866;2024-03-17T00:35:20;100753.78;;;9.25;100.00
58072;BME280;60383;46.626;18.866;2024-03-17T00:37:50;100756.81;;;9.32;100.00
58072;BME280;60383;46.626;18.866;2024-03-17T00:40:19;100756.81;;;9.32;100.00
58072;BME280;60383;46.626;18.866;2024-03-17T00:42:45;100757.53;;;9.24;100.00
58072;BME280;60383;46.626;18.866;2024-03-17T00:45:11;100758.50;;;9.13;100.00
58072;BME280;60383;46.626;18.866;2024-03-17T00:47:37;100758.25;;;9.16;100.00
58072;BME280;60383;46.626;18.866;2024-03-17T00:50:04;100756.03;;;9.10;100.00
58072;BME280;60383;46.626;18.866;2024-03-17T00:52:32;100754.03;;;9.12;100.00
58072;BME280;60383;46.626;18.866;2024-03-17T00:54:57;100766.13;;;9.19;100.00
58072;BME280;60383;46.626;18.866;2024-03-17T00:57:23;100760.66;;;9.19;100.00
58072;BME280;60383;46.626;18.866;2024-03-17T00:59:50;100754.94;;;9.32;100.00
58072;BME280;60383;46.626;18.866;2024-03-17T01:02:16;100762.16;;;9.43;100.00
58072;BME280;60383;46.626;18.866;2024-03-17T01:04:42;100755.41;;;9.47;100.00
58072;BME280;60383;46.626;18.866;2024-03-17T01:07:12;100761.69;;;9.38;100.00
58072;BME280;60383;46.626;18.866;2024-03-17T01:09:38;100759.44;;;9.43;100.00
58072;BME280;60383;46.626;18.866;2024-03-17T01:12:04;100762.84;;;9.35;100.00
58072;BME280;60383;46.626;18.866;2024-03-17T01:14:31;100770.97;;;9.56;100.00
58072;BME280;60383;46.626;18.866;2024-03-17T01:16:58;100764.50;;;9.57;100.00
58072;BME280;60383;46.626;18.866;2024-03-17T01:19:24;100761.03;;;9.75;100.00
58072;BME280;60383;46.626;18.866;2024-03-17T01:21:52;100759.72;;;9.59;100.00
58072;BME280;60383;46.626;18.866;2024-03-17T01:24:18;100757.88;;;9.70;100.00
58072;BME280;60383;46.626;18.866;2024-03-17T01:26:44;100764.50;;;9.77;100.00
58072;BME280;60383;46.626;18.866;2024-03-17T01:29:10;100757.56;;;9.83;100.00
58072;BME280;60383;46.626;18.866;2024-03-17T01:31:35;100754.53;;;9.86;100.00
58072;BME280;60383;46.626;18.866;2024-03-17T01:34:01;100753.66;;;9.75;100.00
58072;BME280;60383;46.626;18.866;2024-03-17T01:36:26;100760.16;;;9.84;100.00
58072;BME280;60383;46.626;18.866;2024-03-17T01:38:52;100759.28;;;9.94;100.00
58072;BME280;60383;46.626;18.866;2024-03-17T01:41:17;100751.22;;;9.92;100.00
58072;BME280;60383;46.626;18.866;2024-03-17T01:43:43;100752.38;;;9.99;100.00
58072;BME280;60383;46.626;18.866;2024-03-17T01:46:13;100756.25;;;10.06;100.00
58072;BME280;60383;46.626;18.866;2024-03-17T01:48:39;100754.41;;;9.87;100.00
58072;BME280;60383;46.626;18.866;2024-03-17T01:51:05;100748.75;;;9.89;100.00
58072;BME280;60383;46.626;18.866;2024-03-17T01:53:31;100753.53;;;10.06;100.00
58072;BME280;60383;46.626;18.866;2024-03-17T01:55:57;100748.66;;;9.90;100.00
58072;BME280;60383;46.626;18.866;2024-03-17T01:58:30;100752.38;;;9.89;100.00
58072;BME280;60383;46.626;18.866;2024-03-17T02:00:56;100749.06;;;10.05;100.00
58072;BME280;60383;46.626;18.866;2024-03-17T02:03:21;100746.28;;;10.15;100.00
58072;BME280;60383;46.626;18.866;2024-03-17T02:05:47;100749.63;;;10.09;100.00
58072;BME280;60383;46.626;18.866;2024-03-17T02:08:13;100744.00;;;10.01;100.00
58072;BME280;60383;46.626;18.866;2024-03-17T02:10:38;100748.03;;;10.16;100.00
58072;BME280;60383;46.626;18.866;2024-03-17T02:13:04;100754.22;;;10.18;99.59
58072;BME280;60383;46.626;18.866;2024-03-17T02:15:31;100750.03;;;10.14;99.46
58072;BME280;60383;46.626;18.866;2024-03-17T02:17:57;100745.00;;;10.10;100.00
58072;BME280;60383;46.626;18.866;2024-03-17T02:20:22;100743.56;;;10.15;99.27
58072;BME280;60383;46.626;18.866;2024-03-17T02:23:11;100753.47;;;10.26;98.79
58072;BME280;60383;46.626;18.866;2024-03-17T02:25:36;100750.19;;;10.13;99.79
58072;BME280;60383;46.626;18.866;2024-03-17T02:28:02;100753.22;;;10.10;99.38
58072;BME280;60383;46.626;18.866;2024-03-17T02:30:28;100754.53;;;10.05;99.45
58072;BME280;60383;46.626;18.866;2024-03-17T02:32:54;100754.25;;;10.09;99.29
58072;BME280;60383;46.626;18.866;2024-03-17T02:35:24;100760.75;;;9.98;99.26
58072;BME280;60383;46.626;18.866;2024-03-17T02:37:50;100754.97;;;9.91;99.58
58072;BME280;60383;46.626;18.866;2024-03-17T02:40:16;100761.59;;;9.88;99.26
58072;BME280;60383;46.626;18.866;2024-03-17T02:42:42;100761.19;;;9.73;100.00
58072;BME280;60383;46.626;18.866;2024-03-17T02:45:10;100762.75;;;9.76;100.00
58072;BME280;60383;46.626;18.866;2024-03-17T02:47:37;100762.75;;;9.76;100.00
58072;BME280;60383;46.626;18.866;2024-03-17T02:50:02;100767.66;;;9.92;99.14
58072;BME280;60383;46.626;18.866;2024-03-17T02:52:29;100775.13;;;9.61;100.00
58072;BME280;60383;46.626;18.866;2024-03-17T02:54:55;100770.63;;;9.40;100.00
58072;BME280;60383;46.626;18.866;2024-03-17T02:57:20;100770.06;;;9.46;100.00
58072;BME280;60383;46.626;18.866;2024-03-17T02:59:48;100782.91;;;9.55;100.00
58072;BME280;60383;46.626;18.866;2024-03-17T03:02:14;100774.81;;;9.44;100.00
58072;BME280;60383;46.626;18.866;2024-03-17T03:04:39;100777.28;;;9.57;100.00
58072;BME280;60383;46.626;18.866;2024-03-17T03:07:05;100776.00;;;9.81;99.27
58072;BME280;60383;46.626;18.866;2024-03-17T03:09:30;100776.53;;;9.55;100.00
58072;BME280;60383;46.626;18.866;2024-03-17T03:12:00;100782.00;;;9.45;100.00
58072;BME280;60383;46.626;18.866;2024-03-17T03:14:28;100778.59;;;9.53;100.00
58072;BME280;60383;46.626;18.866;2024-03-17T03:16:53;100769.06;;;9.57;100.00
58072;BME280;60383;46.626;18.866;2024-03-17T03:19:19;100779.00;;;9.48;100.00
58072;BME280;60383;46.626;18.866;2024-03-17T03:21:45;100780.56;;;9.31;100.00
58072;BME280;60383;46.626;18.866;2024-03-17T03:24:11;100795.84;;;9.53;100.00
58072;BME280;60383;46.626;18.866;2024-03-17T03:26:37;100791.22;;;9.44;100.00
58072;BME280;60383;46.626;18.866;2024-03-17T03:29:04;100784.13;;;9.32;100.00
58072;BME280;60383;46.626;18.866;2024-03-17T03:31:31;100781.22;;;9.23;100.00
58072;BME280;60383;46.626;18.866;2024-03-17T03:33:57;100779.38;;;9.24;100.00
58072;BME280;60383;46.626;18.866;2024-03-17T03:36:22;100782.13;;;9.34;100.00
58072;BME280;60383;46.626;18.866;2024-03-17T03:38:48;100787.75;;;9.32;100.00
58072;BME280;60383;46.626;18.866;2024-03-17T03:41:15;100797.69;;;9.33;100.00
58072;BME280;60383;46.626;18.866;2024-03-17T03:43:41;100794.38;;;9.30;100.00
58072;BME280;60383;46.626;18.866;2024-03-17T03:46:09;100796.06;;;9.31;100.00
58072;BME280;60383;46.626;18.866;2024-03-17T03:48:34;100797.97;;;9.40;100.00
58072;BME280;60383;46.626;18.866;2024-03-17T03:51:07;100808.75;;;9.41;100.00
58072;BME280;60383;46.626;18.866;2024-03-17T03:53:34;100804.28;;;9.40;100.00
58072;BME280;60383;46.626;18.866;2024-03-17T03:56:00;100812.34;;;9.32;100.00
58072;BME280;60383;46.626;18.866;2024-03-17T03:58:34;100811.59;;;9.20;100.00
58072;BME280;60383;46.626;18.866;2024-03-17T04:01:06;100812.69;;;9.58;100.00
58072;BME280;60383;46.626;18.866;2024-03-17T04:03:33;100813.78;;;9.26;100.00
58072;BME280;60383;46.626;18.866;2024-03-17T04:08:30;100822.31;;;9.43;100.00
58072;BME280;60383;46.626;18.866;2024-03-17T04:10:55;100824.00;;;9.44;100.00
58072;BME280;60383;46.626;18.866;2024-03-17T04:13:21;100834.38;;;9.40;100.00
58072;BME280;60383;46.626;18.866;2024-03-17T04:15:47;100830.94;;;9.38;100.00
58072;BME280;60383;46.626;18.866;2024-03-17T04:18:13;100841.09;;;9.26;100.00
58072;BME280;60383;46.626;18.866;2024-03-17T04:20:41;100828.38;;;9.06;100.00
58072;BME280;60383;46.626;18.866;2024-03-17T04:23:07;100824.53;;;9.18;100.00
58072;BME280;60383;46.626;18.866;2024-03-17T04:25:32;100833.56;;;9.09;100.00
58072;BME280;60383;46.626;18.866;2024-03-17T04:27:58;100835.56;;;9.07;100.00
58072;BME280;60383;46.626;18.866;2024-03-17T04:30:23;100840.22;;;9.16;100.00
58072;BME280;60383;46.626;18.866;2024-03-17T04:32:49;100835.00;;;9.13;100.00
58072;BME280;60383;46.626;18.866;2024-03-17T04:35:15;100843.34;;;9.11;100.00
58072;BME280;60383;46.626;18.866;2024-03-17T04:37:40;100837.94;;;8.90;100.00
58072;BME280;60383;46.626;18.866;2024-03-17T04:40:06;100852.81;;;9.07;100.00
58072;BME280;60383;46.626;18.866;2024-03-17T04:42:34;100845.69;;;8.85;100.00
58072;BME280;60383;46.626;18.866;2024-03-17T04:45:00;100847.50;;;9.06;100.00
58072;BME280;60383;46.626;18.866;2024-03-17T04:47:26;100845.38;;;9.19;100.00
58072;BME280;60383;46.626;18.866;2024-03-17T04:49:51;100846.94;;;9.12;100.00
58072;BME280;60383;46.626;18.866;2024-03-17T04:52:16;100847.19;;;8.99;100.00
58072;BME280;60383;46.626;18.866;2024-03-17T04:54:42;100844.81;;;8.85;100.00
58072;BME280;60383;46.626;18.866;2024-03-17T04:57:08;100854.56;;;8.77;100.00
58072;BME280;60383;46.626;18.866;2024-03-17T04:59:35;100847.66;;;8.83;100.00
58072;BME280;60383;46.626;18.866;2024-03-17T05:02:01;100849.16;;;8.87;100.00
58072;BME280;60383;46.626;18.866;2024-03-17T05:04:28;100858.06;;;9.20;100.00
58072;BME280;60383;46.626;18.866;2024-03-17T05:06:53;100853.28;;;9.13;100.00
58072;BME280;60383;46.626;18.866;2024-03-17T05:09:19;100864.22;;;9.13;100.00
58072;BME280;60383;46.626;18.866;2024-03-17T05:11:46;100867.38;;;9.58;100.00
58072;BME280;60383;46.626;18.866;2024-03-17T05:14:12;100861.66;;;9.81;97.95
58072;BME280;60383;46.626;18.866;2024-03-17T05:16:38;100868.31;;;10.08;95.20
58072;BME280;60383;46.626;18.866;2024-03-17T05:19:04;100870.31;;;9.96;94.70
58072;BME280;60383;46.626;18.866;2024-03-17T05:21:30;100870.59;;;10.62;92.24
58072;BME280;60383;46.626;18.866;2024-03-17T05:23:57;100882.25;;;11.21;88.74
58072;BME280;60383;46.626;18.866;2024-03-17T05:26:25;100886.13;;;11.84;84.88
58072;BME280;60383;46.626;18.866;2024-03-17T05:28:51;100890.47;;;12.41;81.16
58072;BME280;60383;46.626;18.866;2024-03-17T05:31:16;100884.63;;;12.62;79.50
58072;BME280;60383;46.626;18.866;2024-03-17T05:33:46;100894.78;;;13.40;75.84
58072;BME280;60383;46.626;18.866;2024-03-17T05:36:12;100898.38;;;13.84;73.74
58072;BME280;60383;46.626;18.866;2024-03-17T05:38:37;100897.03;;;13.88;72.08
58072;BME280;60383;46.626;18.866;2024-03-17T05:41:04;100900.03;;;14.44;70.20
58072;BME280;60383;46.626;18.866;2024-03-17T05:43:32;100902.13;;;14.83;67.65
58072;BME280;60383;46.626;18.866;2024-03-17T05:45:59;100901.41;;;14.98;67.19
58072;BME280;60383;46.626;18.866;2024-03-17T05:48:26;100908.44;;;14.10;69.20
58072;BME280;60383;46.626;18.866;2024-03-17T05:50:52;100910.25;;;14.68;66.95
58072;BME280;60383;46.626;18.866;2024-03-17T05:53:18;100914.28;;;14.06;68.02
58072;BME280;60383;46.626;18.866;2024-03-17T05:55:44;100907.28;;;14.62;67.05
58072;BME280;60383;46.626;18.866;2024-03-17T05:58:10;100902.63;;;14.37;66.46
58072;BME280;60383;46.626;18.866;2024-03-17T06:00:37;100908.00;;;14.80;64.61
58072;BME280;60383;46.626;18.866;2024-03-17T06:03:04;100914.91;;;13.84;67.68
58072;BME280;60383;46.626;18.866;2024-03-17T06:05:37;100920.44;;;13.49;70.35
58072;BME280;60383;46.626;18.866;2024-03-17T06:08:04;100930.91;;;13.19;70.74
58072;BME280;60383;46.626;18.866;2024-03-17T06:10:32;100929.88;;;13.20;70.71
58072;BME280;60383;46.626;18.866;2024-03-17T06:12:58;100935.56;;;12.74;71.92
58072;BME280;60383;46.626;18.866;2024-03-17T06:15:25;100937.63;;;12.72;72.67
58072;BME280;60383;46.626;18.866;2024-03-17T06:17:51;100944.88;;;13.00;70.75
58072;BME280;60383;46.626;18.866;2024-03-17T06:20:22;100934.09;;;12.62;72.64
58072;BME280;60383;46.626;18.866;2024-03-17T06:22:49;100942.69;;;12.41;71.68
58072;BME280;60383;46.626;18.866;2024-03-17T06:25:14;100941.56;;;12.34;73.66
58072;BME280;60383;46.626;18.866;2024-03-17T06:27:40;100930.97;;;12.39;73.87
58072;BME280;60383;46.626;18.866;2024-03-17T06:30:06;100947.84;;;12.44;73.47
58072;BME280;60383;46.626;18.866;2024-03-17T06:32:32;100953.31;;;12.44;73.15
58072;BME280;60383;46.626;18.866;2024-03-17T06:35:01;100940.16;;;12.48;71.50
58072;BME280;60383;46.626;18.866;2024-03-17T06:37:26;100950.50;;;12.54;72.25
58072;BME280;60383;46.626;18.866;2024-03-17T06:39:52;100949.41;;;12.46;72.90
58072;BME280;60383;46.626;18.866;2024-03-17T06:42:19;100957.25;;;12.77;70.40
58072;BME280;60383;46.626;18.866;2024-03-17T06:44:44;100959.53;;;12.28;69.79
58072;BME280;60383;46.626;18.866;2024-03-17T06:47:10;100959.06;;;12.69;69.29
58072;BME280;60383;46.626;18.866;2024-03-17T06:49:35;100947.66;;;12.63;67.96
58072;BME280;60383;46.626;18.866;2024-03-17T06:52:01;100960.19;;;12.58;66.54
58072;BME280;60383;46.626;18.866;2024-03-17T06:54:26;100966.34;;;12.78;65.81
58072;BME280;60383;46.626;18.866;2024-03-17T06:56:52;100965.56;;;12.86;62.77
58072;BME280;60383;46.626;18.866;2024-03-17T06:59:18;100969.88;;;12.88;62.82
58072;BME280;60383;46.626;18.866;2024-03-17T07:01:43;100973.66;;;12.51;62.11
58072;BME280;60383;46.626;18.866;2024-03-17T07:04:10;100975.91;;;12.92;61.78
58072;BME280;60383;46.626;18.866;2024-03-17T07:06:36;100965.47;;;12.96;59.94
58072;BME280;60383;46.626;18.866;2024-03-17T07:09:02;100968.75;;;13.25;59.11
58072;BME280;60383;46.626;18.866;2024-03-17T07:11:27;100972.66;;;13.41;58.52
58072;BME280;60383;46.626;18.866;2024-03-17T07:13:53;100970.50;;;13.53;55.87
58072;BME280;60383;46.626;18.866;2024-03-17T07:16:18;100984.94;;;13.29;56.87
58072;BME280;60383;46.626;18.866;2024-03-17T07:18:44;100978.69;;;13.18;56.13
58072;BME280;60383;46.626;18.866;2024-03-17T07:21:10;100976.09;;;12.90;56.15
58072;BME280;60383;46.626;18.866;2024-03-17T07:23:36;100982.25;;;13.37;53.28
58072;BME280;60383;46.626;18.866;2024-03-17T07:26:03;100989.25;;;13.31;54.30
58072;BME280;60383;46.626;18.866;2024-03-17T07:28:30;100980.56;;;13.18;52.99
58072;BME280;60383;46.626;18.866;2024-03-17T07:31:00;100989.75;;;12.82;54.46
58072;BME280;60383;46.626;18.866;2024-03-17T07:33:26;100986.84;;;12.66;52.96
58072;BME280;60383;46.626;18.866;2024-03-17T07:35:56;100984.25;;;13.00;53.22
58072;BME280;60383;46.626;18.866;2024-03-17T07:38:25;100990.75;;;12.99;54.52
58072;BME280;60383;46.626;18.866;2024-03-17T07:43:26;100983.19;;;13.01;53.03
58072;BME280;60383;46.626;18.866;2024-03-17T07:46:05;100977.06;;;13.34;53.23
58072;BME280;60383;46.626;18.866;2024-03-17T07:48:33;100974.97;;;13.27;51.97
58072;BME280;60383;46.626;18.866;2024-03-17T07:53:32;100963.47;;;13.32;50.33
58072;BME280;60383;46.626;18.866;2024-03-17T07:56:03;100957.00;;;13.15;51.90
58072;BME280;60383;46.626;18.866;2024-03-17T07:58:29;100968.13;;;13.05;52.15
58072;BME280;60383;46.626;18.866;2024-03-17T08:01:11;100962.56;;;13.23;52.35
58072;BME280;60383;46.626;18.866;2024-03-17T08:03:38;100964.50;;;13.31;50.80
58072;BME280;60383;46.626;18.866;2024-03-17T08:06:08;100951.78;;;13.30;52.92
58072;BME280;60383;46.626;18.866;2024-03-17T08:08:34;100955.50;;;13.47;50.31
58072;BME280;60383;46.626;18.866;2024-03-17T08:11:00;100950.22;;;13.54;52.24
58072;BME280;60383;46.626;18.866;2024-03-17T08:13:29;100937.50;;;13.53;53.64
58072;BME280;60383;46.626;18.866;2024-03-17T08:16:00;100946.81;;;13.60;50.82
58072;BME280;60383;46.626;18.866;2024-03-17T08:18:26;100955.47;;;13.39;50.85
58072;BME280;60383;46.626;18.866;2024-03-17T08:20:55;100957.91;;;13.42;49.91
58072;BME280;60383;46.626;18.866;2024-03-17T08:23:22;100952.81;;;13.55;52.45
58072;BME280;60383;46.626;18.866;2024-03-17T08:25:58;100949.75;;;13.67;51.82
58072;BME280;60383;46.626;18.866;2024-03-17T08:28:24;100946.75;;;13.95;50.12
58072;BME280;60383;46.626;18.866;2024-03-17T08:30:51;100956.25;;;14.00;49.29
58072;BME280;60383;46.626;18.866;2024-03-17T08:33:17;100951.28;;;14.04;49.25
58072;BME280;60383;46.626;18.866;2024-03-17T08:35:55;100943.91;;;14.13;49.41
58072;BME280;60383;46.626;18.866;2024-03-17T08:38:21;100954.84;;;13.88;48.04
58072;BME280;60383;46.626;18.866;2024-03-17T08:40:49;100951.56;;;13.84;47.85
58072;BME280;60383;46.626;18.866;2024-03-17T08:43:15;100938.34;;;14.04;49.21
58072;BME280;60383;46.626;18.866;2024-03-17T08:45:40;100958.53;;;14.21;47.55
58072;BME280;60383;46.626;18.866;2024-03-17T08:48:06;100946.47;;;14.06;48.63
58072;BME280;60383;46.626;18.866;2024-03-17T08:50:32;100954.59;;;14.16;47.85
58072;BME280;60383;46.626;18.866;2024-03-17T08:52:59;100937.09;;;14.50;48.48
58072;BME280;60383;46.626;18.866;2024-03-17T08:55:25;100945.38;;;14.66;47.58
58072;BME280;60383;46.626;18.866;2024-03-17T08:57:50;100945.06;;;14.78;47.36
58072;BME280;60383;46.626;18.866;2024-03-17T09:00:16;100929.53;;;14.77;47.64
58072;BME280;60383;46.626;18.866;2024-03-17T09:02:41;100935.13;;;14.17;47.79
58072;BME280;60383;46.626;18.866;2024-03-17T09:05:07;100940.00;;;14.57;49.15
58072;BME280;60383;46.626;18.866;2024-03-17T09:07:33;100944.88;;;14.71;46.67
58072;BME280;60383;46.626;18.866;2024-03-17T09:09:59;100960.63;;;14.36;47.78
58072;BME280;60383;46.626;18.866;2024-03-17T09:12:25;100960.63;;;14.36;47.83
58072;BME280;60383;46.626;18.866;2024-03-17T09:14:51;100952.63;;;14.67;47.48
58072;BME280;60383;46.626;18.866;2024-03-17T09:17:16;100954.69;;;14.82;48.07
58072;BME280;60383;46.626;18.866;2024-03-17T09:19:44;100961.94;;;14.99;47.25
58072;BME280;60383;46.626;18.866;2024-03-17T09:22:10;100963.31;;;14.95;47.44
58072;BME280;60383;46.626;18.866;2024-03-17T09:24:35;100966.19;;;15.27;47.69
58072;BME280;60383;46.626;18.866;2024-03-17T09:27:01;100979.09;;;15.34;46.37
58072;BME280;60383;46.626;18.866;2024-03-17T09:29:27;100963.63;;;15.09;45.21
58072;BME280;60383;46.626;18.866;2024-03-17T09:31:52;100981.06;;;14.93;46.39
58072;BME280;60383;46.626;18.866;2024-03-17T09:34:18;100981.72;;;15.36;46.12
58072;BME280;60383;46.626;18.866;2024-03-17T09:36:43;100959.44;;;15.46;45.91
58072;BME280;60383;46.626;18.866;2024-03-17T09:39:09;100971.72;;;15.18;47.23
58072;BME280;60383;46.626;18.866;2024-03-17T09:41:38;100985.22;;;15.70;45.47
58072;BME280;60383;46.626;18.866;2024-03-17T09:44:06;100968.25;;;15.41;44.98
58072;BME280;60383;46.626;18.866;2024-03-17T09:46:35;100959.84;;;15.74;45.99
58072;BME280;60383;46.626;18.866;2024-03-17T09:49:01;100963.63;;;15.81;45.25
58072;BME280;60383;46.626;18.866;2024-03-17T09:51:27;100958.53;;;15.54;44.51
58072;BME280;60383;46.626;18.866;2024-03-17T09:53:53;100962.00;;;15.56;45.66
58072;BME280;60383;46.626;18.866;2024-03-17T09:56:20;100955.06;;;15.60;44.33
58072;BME280;60383;46.626;18.866;2024-03-17T09:58:49;100950.69;;;15.82;44.45
58072;BME280;60383;46.626;18.866;2024-03-17T10:01:15;100934.28;;;15.80;45.05
58072;BME280;60383;46.626;18.866;2024-03-17T10:03:49;100947.25;;;15.80;43.31
58072;BME280;60383;46.626;18.866;2024-03-17T10:06:23;100947.25;;;15.88;45.69
58072;BME280;60383;46.626;18.866;2024-03-17T10:11:17;100929.16;;;15.69;45.52
58072;BME280;60383;46.626;18.866;2024-03-17T10:13:45;100924.41;;;15.46;45.33
58072;BME280;60383;46.626;18.866;2024-03-17T10:16:24;100908.38;;;15.81;43.31
58072;BME280;60383;46.626;18.866;2024-03-17T10:19:03;100927.41;;;15.76;44.74
58072;BME280;60383;46.626;18.866;2024-03-17T10:21:31;100926.63;;;15.59;45.16
58072;BME280;60383;46.626;18.866;2024-03-17T10:26:51;100924.56;;;15.53;43.68
58072;BME280;60383;46.626;18.866;2024-03-17T10:29:23;100919.38;;;15.50;44.31
58072;BME280;60383;46.626;18.866;2024-03-17T10:32:03;100923.22;;;15.89;43.79
58072;BME280;60383;46.626;18.866;2024-03-17T10:34:30;100916.94;;;16.03;45.96
58072;BME280;60383;46.626;18.866;2024-03-17T10:39:36;100911.63;;;16.48;43.38
58072;BME280;60383;46.626;18.866;2024-03-17T10:42:07;100908.47;;;16.51;43.38
58072;BME280;60383;46.626;18.866;2024-03-17T10:44:34;100901.19;;;16.35;42.32
58072;BME280;60383;46.626;18.866;2024-03-17T10:47:01;100915.78;;;16.21;44.03
58072;BME280;60383;46.626;18.866;2024-03-17T10:49:32;100916.78;;;15.96;42.76
58072;BME280;60383;46.626;18.866;2024-03-17T10:52:15;100914.97;;;16.12;42.45
58072;BME280;60383;46.626;18.866;2024-03-17T10:54:47;100918.13;;;15.69;43.50
58072;BME280;60383;46.626;18.866;2024-03-17T10:59:59;100925.84;;;16.13;43.61
58072;BME280;60383;46.626;18.866;2024-03-17T11:02:26;100926.19;;;16.19;42.54
58072;BME280;60383;46.626;18.866;2024-03-17T11:05:00;100931.56;;;16.12;42.52
58072;BME280;60383;46.626;18.866;2024-03-17T11:07:26;100932.09;;;16.07;41.69
58072;BME280;60383;46.626;18.866;2024-03-17T11:09:55;100927.19;;;16.49;41.03
58072;BME280;60383;46.626;18.866;2024-03-17T11:20:37;100929.25;;;16.24;43.97
58072;BME280;60383;46.626;18.866;2024-03-17T11:23:03;100932.50;;;16.51;41.70
58072;BME280;60383;46.626;18.866;2024-03-17T11:28:03;100923.13;;;16.60;41.35
58072;BME280;60383;46.626;18.866;2024-03-17T11:46:57;100910.47;;;17.04;39.85
58072;BME280;60383;46.626;18.866;2024-03-17T11:49:39;100912.97;;;16.99;39.36
58072;BME280;60383;46.626;18.866;2024-03-17T11:52:15;100917.34;;;17.08;38.93
58072;BME280;60383;46.626;18.866;2024-03-17T11:54:43;100900.75;;;17.08;38.88
58072;BME280;60383;46.626;18.866;2024-03-17T11:57:10;100885.78;;;17.17;37.64
58072;BME280;60383;46.626;18.866;2024-03-17T11:59:36;100902.09;;;17.27;37.06
58072;BME280;60383;46.626;18.866;2024-03-17T12:02:10;100888.94;;;17.29;37.58
58072;BME280;60383;46.626;18.866;2024-03-17T12:04:40;100885.22;;;17.37;38.31
58072;BME280;60383;46.626;18.866;2024-03-17T12:07:11;100890.63;;;17.30;38.87
58072;BME280;60383;46.626;18.866;2024-03-17T12:09:38;100880.25;;;17.32;37.97
58072;BME280;60383;46.626;18.866;2024-03-17T12:12:18;100879.75;;;17.14;37.70
58072;BME280;60383;46.626;18.866;2024-03-17T12:14:44;100868.78;;;17.50;39.32
58072;BME280;60383;46.626;18.866;2024-03-17T12:17:11;100865.44;;;17.10;38.89
58072;BME280;60383;46.626;18.866;2024-03-17T12:19:37;100877.00;;;16.99;38.35
58072;BME280;60383;46.626;18.866;2024-03-17T12:22:05;100883.56;;;16.98;37.51
58072;BME280;60383;46.626;18.866;2024-03-17T12:24:32;100869.75;;;16.98;37.45
58072;BME280;60383;46.626;18.866;2024-03-17T12:26:58;100859.91;;;16.95;36.39
58072;BME280;60383;46.626;18.866;2024-03-17T12:29:37;100866.03;;;16.67;36.82
58072;BME280;60383;46.626;18.866;2024-03-17T12:32:19;100876.66;;;16.55;37.95
58072;BME280;60383;46.626;18.866;2024-03-17T12:34:48;100869.72;;;16.59;37.29
58072;BME280;60383;46.626;18.866;2024-03-17T12:37:20;100852.59;;;16.41;37.91
58072;BME280;60383;46.626;18.866;2024-03-17T12:39:46;100851.41;;;16.58;38.70
58072;BME280;60383;46.626;18.866;2024-03-17T12:42:25;100840.75;;;16.70;37.76
58072;BME280;60383;46.626;18.866;2024-03-17T12:44:58;100843.78;;;16.22;38.06
58072;BME280;60383;46.626;18.866;2024-03-17T12:47:25;100847.78;;;16.58;37.36
58072;BME280;60383;46.626;18.866;2024-03-17T12:49:55;100844.78;;;16.83;37.23
58072;BME280;60383;46.626;18.866;2024-03-17T12:52:22;100852.50;;;16.87;37.36
58072;BME280;60383;46.626;18.866;2024-03-17T12:55:03;100850.41;;;16.74;37.36
58072;BME280;60383;46.626;18.866;2024-03-17T12:57:49;100845.25;;;16.71;37.32
58072;BME280;60383;46.626;18.866;2024-03-17T13:00:34;100833.41;;;16.77;37.65
58072;BME280;60383;46.626;18.866;2024-03-17T13:03:04;100842.84;;;16.68;37.00
58072;BME280;60383;46.626;18.866;2024-03-17T13:05:33;100831.28;;;16.65;37.28
58072;BME280;60383;46.626;18.866;2024-03-17T13:08:01;100829.69;;;16.70;37.82
58072;BME280;60383;46.626;18.866;2024-03-17T13:10:28;100829.41;;;16.65;37.86
58072;BME280;60383;46.626;18.866;2024-03-17T13:13:03;100822.16;;;16.79;37.10
58072;BME280;60383;46.626;18.866;2024-03-17T13:15:30;100827.38;;;16.59;36.90
58072;BME280;60383;46.626;18.866;2024-03-17T13:18:01;100836.25;;;16.54;37.85
58072;BME280;60383;46.626;18.866;2024-03-17T13:20:27;100830.25;;;16.27;38.67
58072;BME280;60383;46.626;18.866;2024-03-17T13:22:53;100828.19;;;16.29;38.61
58072;BME280;60383;46.626;18.866;2024-03-17T13:25:22;100824.91;;;16.26;37.55
58072;BME280;60383;46.626;18.866;2024-03-17T13:27:49;100827.13;;;16.07;38.02